createdAt,value
2022-12-04T00:01:37.430Z,11.15
2022-12-04T00:04:08.134Z,13.18
2022-12-04T00:06:38.968Z,14.23
2022-12-04T00:09:12.855Z,12.90
2022-12-04T00:11:45.327Z,12.43
2022-12-04T00:14:16.021Z,11.68
2022-12-04T00:16:48.807Z,11.95
2022-12-04T00:19:19.650Z,16.17
2022-12-04T00:21:52.092Z,14.23
2022-12-04T00:24:22.784Z,17.90
2022-12-04T00:26:53.789Z,13.88
2022-12-04T00:29:24.477Z,13.85
2022-12-04T00:31:55.287Z,12.60
2022-12-04T00:34:27.323Z,10.18
2022-12-04T00:36:58.051Z,15.00
2022-12-04T00:39:31.901Z,12.70
2022-12-04T00:42:02.576Z,16.97
2022-12-04T00:44:33.919Z,16.40
2022-12-04T00:47:04.571Z,19.27
2022-12-04T00:49:35.345Z,10.10
2022-12-04T00:52:06.324Z,10.90
2022-12-04T00:54:36.981Z,10.40
2022-12-04T00:57:07.686Z,9.33
2022-12-04T00:59:40.280Z,11.28
2022-12-04T01:02:10.894Z,12.00
2022-12-04T01:04:41.542Z,16.57
2022-12-04T01:07:12.314Z,13.58
2022-12-04T01:09:43.385Z,12.73
2022-12-04T01:12:20.511Z,14.00
2022-12-04T01:14:48.266Z,16.27
2022-12-04T01:17:21.707Z,11.68
2022-12-04T01:19:53.074Z,9.55
2022-12-04T01:22:24.355Z,7.67
2022-12-04T01:24:59.540Z,7.53
2022-12-04T01:27:30.801Z,11.28
2022-12-04T01:30:01.765Z,8.35
2022-12-04T01:32:32.676Z,11.33
2022-12-04T01:35:03.607Z,9.63
2022-12-04T01:37:35.397Z,7.80
2022-12-04T01:40:07.714Z,10.78
2022-12-04T01:42:39.346Z,8.45
2022-12-04T01:45:39.325Z,7.85
2022-12-04T01:48:15.268Z,8.65
2022-12-04T01:50:47.311Z,10.32
2022-12-04T01:53:18.802Z,7.35
2022-12-04T01:55:51.067Z,7.70
2022-12-04T01:58:24.439Z,6.08
2022-12-04T02:00:58.645Z,9.53
2022-12-04T02:03:30.310Z,6.30
2022-12-04T02:06:01.325Z,6.70
2022-12-04T02:08:32.927Z,7.00
2022-12-04T02:11:11.822Z,4.53
2022-12-04T02:13:50.686Z,6.97
2022-12-04T02:16:23.908Z,4.65
2022-12-04T02:19:11.807Z,4.40
2022-12-04T02:21:45.485Z,4.50
2022-12-04T02:24:45.193Z,5.50
2022-12-04T02:27:15.713Z,8.25
2022-12-04T02:30:07.133Z,6.47
2022-12-04T02:32:45.516Z,4.78
2022-12-04T02:35:18.910Z,5.25
2022-12-04T02:37:52.197Z,6.45
2022-12-04T02:40:31.923Z,5.75
2022-12-04T02:43:16.959Z,5.33
2022-12-04T02:46:11.577Z,4.42
2022-12-04T02:48:45.054Z,5.33
2022-12-04T02:51:18.264Z,8.05
2022-12-04T02:53:51.729Z,8.78
2022-12-04T02:56:28.608Z,5.17
2022-12-04T02:59:04.802Z,6.67
2022-12-04T03:01:48.388Z,7.12
2022-12-04T03:04:22.008Z,4.47
2022-12-04T03:06:56.516Z,5.08
2022-12-04T03:09:33.061Z,5.97
2022-12-04T03:12:11.959Z,4.37
2022-12-04T03:14:47.647Z,3.47
2022-12-04T03:17:23.633Z,4.67
2022-12-04T03:19:57.223Z,8.67
2022-12-04T03:22:30.270Z,4.03
2022-12-04T03:25:01.709Z,4.47
2022-12-04T03:27:55.959Z,4.15
2022-12-04T03:30:26.803Z,3.90
2022-12-04T03:33:00.050Z,4.97
2022-12-04T03:35:54.054Z,3.62
2022-12-04T03:38:45.234Z,3.72
2022-12-04T03:41:30.093Z,3.83
2022-12-04T03:44:10.254Z,10.70
2022-12-04T03:47:00.149Z,4.25
2022-12-04T03:49:42.203Z,4.00
2022-12-04T03:52:24.232Z,8.65
2022-12-04T03:55:06.337Z,9.63
2022-12-04T03:57:40.338Z,8.10
2022-12-04T04:00:23.332Z,14.87
2022-12-04T04:02:59.774Z,5.33
2022-12-04T04:05:33.519Z,2.52
2022-12-04T04:08:23.978Z,2.45
2022-12-04T04:11:13.417Z,6.08
2022-12-04T04:14:19.678Z,2.62
2022-12-04T04:17:13.657Z,2.33
2022-12-04T04:20:04.927Z,2.45
2022-12-04T04:22:56.316Z,3.45
2022-12-04T04:25:29.109Z,1.57
2022-12-04T04:28:01.369Z,3.67
2022-12-04T04:30:35.251Z,3.00
2022-12-04T04:33:14.295Z,2.35
2022-12-04T04:35:59.587Z,2.40
2022-12-04T04:38:45.082Z,5.37
2022-12-04T04:41:21.491Z,3.15
2022-12-04T04:44:03.661Z,3.55
2022-12-04T04:46:37.220Z,3.12
2022-12-04T04:49:10.877Z,3.80
2022-12-04T04:51:41.792Z,8.28
2022-12-04T04:54:15.040Z,3.72
2022-12-04T04:56:49.914Z,2.52
2022-12-04T04:59:21.176Z,2.98
2022-12-04T05:01:52.265Z,2.87
2022-12-04T05:04:23.412Z,2.77
2022-12-04T05:06:57.759Z,3.85
2022-12-04T05:09:27.998Z,3.08
2022-12-04T05:11:58.636Z,3.55
2022-12-04T05:14:29.334Z,3.55
2022-12-04T05:17:01.999Z,3.40
2022-12-04T05:19:52.407Z,4.58
2022-12-04T05:22:37.066Z,3.35
2022-12-04T05:25:11.376Z,4.80
2022-12-04T05:27:43.654Z,2.83
2022-12-04T05:30:15.399Z,2.47
2022-12-04T05:32:46.458Z,4.22
2022-12-04T05:35:17.288Z,2.12
2022-12-04T05:37:47.918Z,4.00
2022-12-04T05:40:18.863Z,2.83
2022-12-04T05:42:50.814Z,3.17
2022-12-04T05:45:24.855Z,2.98
2022-12-04T05:47:57.592Z,3.92
2022-12-04T05:50:28.445Z,2.75
2022-12-04T05:53:00.019Z,4.85
2022-12-04T05:55:31.652Z,2.60
2022-12-04T05:58:02.302Z,3.35
2022-12-04T06:00:34.539Z,3.47
2022-12-04T06:03:05.996Z,2.37
2022-12-04T06:05:36.806Z,3.37
2022-12-04T06:08:07.887Z,2.55
2022-12-04T06:10:38.961Z,3.67
2022-12-04T06:13:10.412Z,1.85
2022-12-04T06:15:42.064Z,2.67
2022-12-04T06:18:13.232Z,1.92
2022-12-04T06:20:45.438Z,2.35
2022-12-04T06:23:16.359Z,2.40
2022-12-04T06:26:07.483Z,2.65
2022-12-04T06:28:42.073Z,2.67
2022-12-04T06:31:14.855Z,2.25
2022-12-04T06:33:45.751Z,2.65
2022-12-04T06:36:19.003Z,2.12
2022-12-04T06:38:50.700Z,2.60
2022-12-04T06:41:23.131Z,1.87
2022-12-04T06:43:55.604Z,2.17
2022-12-04T06:46:28.824Z,2.17
2022-12-04T06:49:00.420Z,2.15
2022-12-04T06:51:34.325Z,2.22
2022-12-04T06:54:05.480Z,2.30
2022-12-04T06:56:36.927Z,1.57
2022-12-04T06:59:08.474Z,2.77
2022-12-04T07:01:40.841Z,2.05
2022-12-04T07:04:13.417Z,2.83
2022-12-04T07:06:44.670Z,1.92
2022-12-04T07:09:18.309Z,5.15
2022-12-04T07:11:49.285Z,2.67
2022-12-04T07:14:21.081Z,1.52
2022-12-04T07:16:55.708Z,2.87
2022-12-04T07:19:26.597Z,2.52
2022-12-04T07:21:57.494Z,2.60
2022-12-04T07:24:30.325Z,2.17
2022-12-04T07:27:01.205Z,1.32
2022-12-04T07:29:32.069Z,3.50
2022-12-04T07:32:02.836Z,1.90
2022-12-04T07:34:34.024Z,1.75
2022-12-04T07:37:04.773Z,1.87
2022-12-04T07:39:37.786Z,4.53
2022-12-04T07:42:08.890Z,2.87
2022-12-04T07:45:00.353Z,2.67
2022-12-04T07:47:32.385Z,1.95
2022-12-04T07:50:03.351Z,2.12
2022-12-04T07:52:35.471Z,2.83
2022-12-04T07:55:07.600Z,2.67
2022-12-04T07:57:39.444Z,2.42
2022-12-04T08:00:17.591Z,2.17
2022-12-04T08:02:48.935Z,3.42
2022-12-04T08:05:20.124Z,2.52
2022-12-04T08:07:51.650Z,1.95
2022-12-04T08:10:23.639Z,2.83
2022-12-04T08:12:54.319Z,3.25
2022-12-04T08:15:25.875Z,2.20
2022-12-04T08:17:59.817Z,2.47
2022-12-04T08:20:31.080Z,2.00
2022-12-04T08:23:01.705Z,2.25
2022-12-04T08:25:43.856Z,3.50
2022-12-04T08:28:15.057Z,3.72
2022-12-04T08:30:46.433Z,1.98
2022-12-04T08:33:23.025Z,3.55
2022-12-04T08:38:26.851Z,2.35
2022-12-04T08:40:58.873Z,4.62
2022-12-04T08:43:32.383Z,2.40
2022-12-04T08:46:05.656Z,4.08
2022-12-04T08:48:37.430Z,4.10
2022-12-04T08:51:11.932Z,2.12
2022-12-04T08:53:43.258Z,3.20
2022-12-04T08:56:17.574Z,3.10
2022-12-04T08:58:50.628Z,1.42
2022-12-04T09:01:22.140Z,3.42
2022-12-04T09:03:52.964Z,2.83
2022-12-04T09:06:24.376Z,3.22
2022-12-04T09:08:58.719Z,3.65
2022-12-04T09:11:34.549Z,1.35
2022-12-04T09:14:05.796Z,3.87
2022-12-04T09:16:36.544Z,4.05
2022-12-04T09:19:08.080Z,1.25
2022-12-04T09:21:40.342Z,4.05
2022-12-04T09:24:11.712Z,3.22
2022-12-04T09:26:45.398Z,3.37
2022-12-04T09:29:16.031Z,2.52
2022-12-04T09:31:47.169Z,2.98
2022-12-04T09:34:18.386Z,2.77
2022-12-04T09:36:51.288Z,3.50
2022-12-04T09:39:42.057Z,3.98
2022-12-04T09:42:24.035Z,2.40
2022-12-04T09:44:59.265Z,2.62
2022-12-04T09:47:38.490Z,3.45
2022-12-04T09:50:17.803Z,3.35
2022-12-04T09:53:10.667Z,4.05
2022-12-04T09:56:02.621Z,4.00
2022-12-04T09:58:50.793Z,3.33
2022-12-04T10:01:30.202Z,6.78
2022-12-04T10:04:06.097Z,6.72
2022-12-04T10:06:36.269Z,4.37
2022-12-04T10:09:18.515Z,6.37
2022-12-04T10:12:26.994Z,4.85
2022-12-04T10:15:24.479Z,4.33
2022-12-04T10:18:13.112Z,3.83
2022-12-04T10:21:01.503Z,2.95
2022-12-04T10:23:48.575Z,4.10
2022-12-04T10:26:22.365Z,4.10
2022-12-04T10:29:04.987Z,3.30
2022-12-04T10:31:38.595Z,5.33
2022-12-04T10:34:11.929Z,2.22
2022-12-04T10:36:44.415Z,3.25
2022-12-04T10:39:24.601Z,4.08
2022-12-04T10:42:02.625Z,3.70
2022-12-04T10:44:33.985Z,3.00
2022-12-04T10:47:07.358Z,3.65
2022-12-04T10:49:39.174Z,7.80
2022-12-04T10:52:11.854Z,4.37
2022-12-04T10:54:50.980Z,4.08
2022-12-04T10:57:21.891Z,7.45
2022-12-04T10:59:54.778Z,6.17
2022-12-04T11:02:31.412Z,5.15
2022-12-04T11:05:12.704Z,7.70
2022-12-04T11:07:51.434Z,6.55
2022-12-04T11:10:24.965Z,8.38
2022-12-04T11:13:00.793Z,5.95
2022-12-04T11:15:31.978Z,7.17
2022-12-04T11:18:13.811Z,6.47
2022-12-04T11:20:47.243Z,8.03
2022-12-04T11:23:22.576Z,5.67
2022-12-04T11:26:05.168Z,12.30
2022-12-04T11:28:43.200Z,4.90
2022-12-04T11:31:09.748Z,6.67
2022-12-04T11:33:43.347Z,6.17
2022-12-04T11:36:28.927Z,9.03
2022-12-04T11:39:18.578Z,12.57
2022-12-04T11:41:51.803Z,12.88
2022-12-04T11:44:31.086Z,11.53
2022-12-04T11:47:06.988Z,10.40
2022-12-04T11:49:43.594Z,7.97
2022-12-04T11:52:18.573Z,6.72
2022-12-04T11:55:02.253Z,7.05
2022-12-04T11:57:57.176Z,8.60
2022-12-04T12:00:30.979Z,8.93
2022-12-04T12:03:06.893Z,10.05
2022-12-04T12:05:40.351Z,6.30
2022-12-04T12:08:36.272Z,9.45
2022-12-04T12:11:16.663Z,7.22
2022-12-04T12:13:59.362Z,8.28
2022-12-04T12:16:51.675Z,11.10
2022-12-04T12:19:38.128Z,12.07
2022-12-04T12:22:28.108Z,11.03
2022-12-04T12:25:04.410Z,9.58
2022-12-04T12:27:50.268Z,9.05
2022-12-04T12:30:24.798Z,7.92
2022-12-04T12:33:03.886Z,10.50
2022-12-04T12:35:41.207Z,11.12
2022-12-04T12:38:29.487Z,10.13
2022-12-04T12:41:05.590Z,9.48
2022-12-04T12:43:41.862Z,17.62
2022-12-04T12:46:40.914Z,11.03
2022-12-04T12:52:25.034Z,12.90
2022-12-04T12:55:02.615Z,10.95
2022-12-04T12:57:44.329Z,13.22
2022-12-04T13:00:20.699Z,14.93
2022-12-04T13:03:06.660Z,12.98
2022-12-04T13:05:42.827Z,12.35
2022-12-04T13:08:47.847Z,14.93
2022-12-04T13:11:17.512Z,12.18
2022-12-04T13:14:00.879Z,15.60
2022-12-04T13:16:46.058Z,14.75
2022-12-04T13:19:25.489Z,13.93
2022-12-04T13:22:29.396Z,15.05
2022-12-04T13:25:20.665Z,14.65
2022-12-04T13:28:11.979Z,15.55
2022-12-04T13:31:04.832Z,18.12
2022-12-04T13:33:42.492Z,16.93
2022-12-04T13:36:24.580Z,18.27
2022-12-04T13:39:26.750Z,14.73
2022-12-04T13:42:04.204Z,16.73
2022-12-04T13:44:51.146Z,15.10
2022-12-04T13:47:24.426Z,15.05
2022-12-04T13:49:56.388Z,15.78
2022-12-04T13:52:30.797Z,13.55
2022-12-04T13:55:02.577Z,17.40
2022-12-04T13:57:33.440Z,16.97
2022-12-04T14:00:28.100Z,14.33
2022-12-04T14:03:01.901Z,16.12
2022-12-04T14:05:35.166Z,13.70
2022-12-04T14:08:11.441Z,14.40
2022-12-04T14:10:44.928Z,11.40
2022-12-04T14:13:23.693Z,13.78
2022-12-04T14:16:11.569Z,13.88
2022-12-04T14:18:45.301Z,14.50
2022-12-04T14:21:17.176Z,16.80
2022-12-04T14:24:01.275Z,13.15
2022-12-04T14:27:03.192Z,13.20
2022-12-04T14:29:31.947Z,15.08
2022-12-04T14:35:02.714Z,13.03
2022-12-04T14:37:44.712Z,14.50
2022-12-04T14:40:31.689Z,19.02
2022-12-04T14:43:03.090Z,13.25
2022-12-04T14:45:50.984Z,12.73
2022-12-04T14:48:29.864Z,12.45
2022-12-04T14:51:09.020Z,10.75
2022-12-04T14:53:53.973Z,11.80
2022-12-04T14:56:36.590Z,10.55
2022-12-04T14:59:18.460Z,12.78
2022-12-04T15:01:51.142Z,10.18
2022-12-04T15:04:38.406Z,11.12
2022-12-04T15:07:11.134Z,12.07
2022-12-04T15:10:00.891Z,11.95
2022-12-04T15:12:38.239Z,13.15
2022-12-04T15:15:20.815Z,10.70
2022-12-04T15:18:14.719Z,12.18
2022-12-04T15:20:53.494Z,16.20
2022-12-04T15:23:27.103Z,12.35
2022-12-04T15:26:03.073Z,13.58
2022-12-04T15:28:45.205Z,14.10
2022-12-04T15:31:19.196Z,12.23
2022-12-04T15:33:51.722Z,12.82
2022-12-04T15:36:41.167Z,15.08
2022-12-04T15:39:17.180Z,12.58
2022-12-04T15:41:49.234Z,10.75
2022-12-04T15:44:28.615Z,11.83
2022-12-04T15:47:01.777Z,10.95
2022-12-04T15:49:34.199Z,10.48
2022-12-04T15:52:17.284Z,9.23
2022-12-04T15:54:57.839Z,14.07
2022-12-04T15:57:37.665Z,11.50
2022-12-04T16:00:11.260Z,9.50
2022-12-04T16:02:44.845Z,6.92
2022-12-04T16:05:30.035Z,7.55
2022-12-04T16:08:03.989Z,6.97
2022-12-04T16:10:38.501Z,8.68
2022-12-04T16:13:09.246Z,7.40
2022-12-04T16:15:42.541Z,7.33
2022-12-04T16:18:15.763Z,8.28
2022-12-04T16:20:48.721Z,7.33
2022-12-04T16:23:19.477Z,6.97
2022-12-04T16:25:53.562Z,9.05
2022-12-04T16:28:22.348Z,9.00
2022-12-04T16:30:54.070Z,7.55
2022-12-04T16:33:24.948Z,4.87
2022-12-04T16:35:55.781Z,8.93
2022-12-04T16:38:26.439Z,7.15
2022-12-04T16:40:57.315Z,5.85
2022-12-04T16:43:28.100Z,6.65
2022-12-04T16:46:01.601Z,6.40
2022-12-04T16:48:33.900Z,7.92
2022-12-04T16:51:07.600Z,5.37
2022-12-04T16:53:38.334Z,6.03
2022-12-04T16:56:10.374Z,6.97
2022-12-04T16:58:41.229Z,9.23
2022-12-04T17:01:17.260Z,6.30
2022-12-04T17:03:48.538Z,7.05
2022-12-04T17:06:19.293Z,6.87
2022-12-04T17:08:50.064Z,4.70
2022-12-04T17:11:21.233Z,7.25
2022-12-04T17:13:51.919Z,5.97
2022-12-04T17:16:22.917Z,5.65
2022-12-04T17:18:54.461Z,6.72
2022-12-04T17:21:27.661Z,6.97
2022-12-04T17:23:59.715Z,6.65
2022-12-04T17:26:30.946Z,5.80
2022-12-04T17:29:01.754Z,7.65
2022-12-04T17:31:32.549Z,7.33
2022-12-04T17:34:05.215Z,5.17
2022-12-04T17:36:38.930Z,5.97
2022-12-04T17:39:12.807Z,6.83
2022-12-04T17:41:43.464Z,7.85
2022-12-04T17:44:14.215Z,4.85
2022-12-04T17:46:46.497Z,7.47
2022-12-04T17:49:17.322Z,5.83
2022-12-04T17:51:47.979Z,6.15
2022-12-04T17:54:18.694Z,5.20
2022-12-04T17:56:53.407Z,6.17
2022-12-04T17:59:21.588Z,10.65
2022-12-04T18:01:58.017Z,6.42
2022-12-04T18:04:28.859Z,6.12
2022-12-04T18:06:59.602Z,5.15
2022-12-04T18:09:36.093Z,5.85
2022-12-04T18:12:07.309Z,5.17
2022-12-04T18:14:44.189Z,4.47
2022-12-04T18:17:14.983Z,6.33
2022-12-04T18:19:45.891Z,5.95
2022-12-04T18:22:17.226Z,5.28
2022-12-04T18:24:47.956Z,6.83
2022-12-04T18:27:19.518Z,4.80
2022-12-04T18:29:50.350Z,6.75
2022-12-04T18:32:21.068Z,5.92
2022-12-04T18:34:52.235Z,5.25
2022-12-04T18:37:22.976Z,5.37
2022-12-04T18:39:54.744Z,5.67
2022-12-04T18:42:25.843Z,5.65
2022-12-04T18:44:56.555Z,6.03
2022-12-04T18:47:28.074Z,5.53
2022-12-04T18:49:59.080Z,3.80
2022-12-04T18:52:30.829Z,7.37
2022-12-04T18:55:01.639Z,5.60
2022-12-04T18:57:32.276Z,5.58
2022-12-04T19:00:02.935Z,5.28
2022-12-04T19:02:33.761Z,5.53
2022-12-04T19:05:04.586Z,6.58
2022-12-04T19:07:37.215Z,5.92
2022-12-04T19:10:11.057Z,5.72
2022-12-04T19:12:41.024Z,6.45
2022-12-04T19:15:12.257Z,5.65
2022-12-04T19:17:42.987Z,7.08
2022-12-04T19:20:14.419Z,8.15
2022-12-04T19:22:47.555Z,4.65
2022-12-04T19:25:18.790Z,5.97
2022-12-04T19:27:51.146Z,5.53
2022-12-04T19:30:22.134Z,6.92
2022-12-04T19:32:52.975Z,7.15
2022-12-04T19:35:23.642Z,8.25
2022-12-04T19:37:58.224Z,6.33
2022-12-04T19:40:28.903Z,6.15
2022-12-04T19:43:02.856Z,6.10
2022-12-04T19:45:31.773Z,5.55
2022-12-04T19:48:03.066Z,7.75
2022-12-04T19:50:34.749Z,6.58
2022-12-04T19:53:05.529Z,6.92
2022-12-04T19:55:38.270Z,5.95
2022-12-04T19:58:09.060Z,6.78
2022-12-04T20:00:39.927Z,6.10
2022-12-04T20:03:11.091Z,7.15
2022-12-04T20:05:41.788Z,5.87
2022-12-04T20:10:41.354Z,8.98
2022-12-04T20:13:13.888Z,7.03
2022-12-04T20:15:44.723Z,8.60
2022-12-04T20:18:15.407Z,6.25
2022-12-04T20:20:47.477Z,7.72
2022-12-04T20:23:18.154Z,7.22
2022-12-04T20:25:50.730Z,6.08
2022-12-04T20:28:21.567Z,8.38
2022-12-04T20:30:52.489Z,9.55
2022-12-04T20:33:23.153Z,7.53
2022-12-04T20:35:54.185Z,7.35
2022-12-04T20:38:25.028Z,7.22
2022-12-04T20:40:57.262Z,8.68
2022-12-04T20:43:28.039Z,11.48
2022-12-04T20:45:58.862Z,9.30
2022-12-04T20:48:30.211Z,10.88
2022-12-04T20:51:02.924Z,12.93
2022-12-04T20:53:33.649Z,11.75
2022-12-04T20:56:06.202Z,11.93
2022-12-04T20:58:38.884Z,10.72
2022-12-04T21:01:15.090Z,12.15
2022-12-04T21:03:46.947Z,12.47
2022-12-04T21:06:21.158Z,9.03
2022-12-04T21:08:59.932Z,11.25
2022-12-04T21:11:32.860Z,10.53
2022-12-04T21:14:22.503Z,10.82
2022-12-04T21:16:53.450Z,10.82
2022-12-04T21:19:25.188Z,8.45
2022-12-04T21:21:56.576Z,10.32
2022-12-04T21:24:29.779Z,10.03
2022-12-04T21:27:02.303Z,7.75
2022-12-04T21:29:32.665Z,8.55
2022-12-04T21:32:03.422Z,7.12
2022-12-04T21:34:34.525Z,10.32
2022-12-04T21:37:05.263Z,10.90
2022-12-04T21:39:37.169Z,9.58
2022-12-04T21:42:25.568Z,9.25
2022-12-04T21:44:56.415Z,10.63
2022-12-04T21:47:27.654Z,9.45
2022-12-04T21:49:58.703Z,10.18
2022-12-04T21:52:32.521Z,10.50
2022-12-04T21:55:03.259Z,9.30
2022-12-04T21:57:34.110Z,11.20
2022-12-04T22:00:05.340Z,11.45
2022-12-04T22:02:37.451Z,14.93
2022-12-04T22:05:08.686Z,12.82
2022-12-04T22:07:39.552Z,10.68
2022-12-04T22:10:11.633Z,10.63
2022-12-04T22:12:50.618Z,8.03
2022-12-04T22:15:14.540Z,6.55
2022-12-04T22:17:45.386Z,8.43
2022-12-04T22:20:16.014Z,7.97
2022-12-04T22:22:46.682Z,8.88
2022-12-04T22:25:17.400Z,7.78
2022-12-04T22:27:48.067Z,8.20
2022-12-04T22:30:21.761Z,9.03
2022-12-04T22:32:52.457Z,10.80
2022-12-04T22:35:25.134Z,15.75
2022-12-04T22:37:56.169Z,11.73
2022-12-04T22:40:27.010Z,10.20
2022-12-04T22:42:57.666Z,10.98
2022-12-04T22:45:28.392Z,15.72
2022-12-04T22:47:59.111Z,17.20
2022-12-04T22:50:30.048Z,12.20
2022-12-04T22:53:02.852Z,11.25
2022-12-04T22:55:33.606Z,11.35
2022-12-04T22:58:23.491Z,8.50
2022-12-04T23:00:55.179Z,10.63
2022-12-04T23:03:25.891Z,7.50
2022-12-04T23:05:56.737Z,8.75
2022-12-04T23:08:27.522Z,9.23
2022-12-04T23:10:58.436Z,7.05
2022-12-04T23:13:29.197Z,8.90
2022-12-04T23:16:02.570Z,7.70
2022-12-04T23:18:35.033Z,10.60
2022-12-04T23:21:08.581Z,9.98
2022-12-04T23:23:41.045Z,8.33
2022-12-04T23:26:14.387Z,8.73
2022-12-04T23:28:45.581Z,6.55
2022-12-04T23:31:17.047Z,7.42
2022-12-04T23:33:48.174Z,7.37
2022-12-04T23:36:19.429Z,9.03
2022-12-04T23:38:50.512Z,9.13
2022-12-04T23:41:23.363Z,11.75
2022-12-04T23:43:55.163Z,12.70
2022-12-04T23:46:29.942Z,13.05
2022-12-04T23:49:01.522Z,12.05
2022-12-04T23:51:32.748Z,10.98
2022-12-04T23:54:03.516Z,11.30
2022-12-04T23:56:34.188Z,13.20
2022-12-04T23:59:04.858Z,15.00
